createdAt,value
2022-09-28T00:00:24.054Z,1.07
2022-09-28T00:01:25.814Z,0.73
2022-09-28T00:02:28.074Z,0.87
2022-09-28T00:03:29.541Z,0.70
2022-09-28T00:04:30.964Z,0.80
2022-09-28T00:05:32.739Z,0.80
2022-09-28T00:06:34.032Z,1.00
2022-09-28T00:07:35.349Z,0.63
2022-09-28T00:08:36.874Z,1.10
2022-09-28T00:09:38.371Z,1.00
2022-09-28T00:10:41.387Z,0.70
2022-09-28T00:11:43.707Z,0.90
2022-09-28T00:12:44.980Z,0.83
2022-09-28T00:13:48.836Z,0.90
2022-09-28T00:14:50.105Z,0.70
2022-09-28T00:16:08.010Z,0.80
2022-09-28T00:17:09.323Z,1.07
2022-09-28T00:18:11.189Z,0.97
2022-09-28T00:19:12.689Z,1.00
2022-09-28T00:20:14.325Z,0.63
2022-09-28T00:21:17.216Z,0.70
2022-09-28T00:22:18.523Z,0.93
2022-09-28T00:23:19.788Z,0.90
2022-09-28T00:24:25.221Z,0.80
2022-09-28T00:25:29.925Z,0.80
2022-09-28T00:26:32.353Z,0.70
2022-09-28T00:27:33.638Z,0.80
2022-09-28T00:28:35.164Z,0.90
2022-09-28T00:29:37.210Z,0.80
2022-09-28T00:30:38.509Z,0.90
2022-09-28T00:31:39.878Z,1.00
2022-09-28T00:32:41.216Z,1.00
2022-09-28T00:33:44.280Z,0.90
2022-09-28T00:34:49.178Z,0.93
2022-09-28T00:35:57.768Z,0.90
2022-09-28T00:36:59.264Z,0.90
2022-09-28T00:38:02.255Z,0.80
2022-09-28T00:39:08.071Z,0.90
2022-09-28T00:40:09.488Z,1.00
2022-09-28T00:41:11.301Z,1.03
2022-09-28T00:42:19.961Z,0.90
2022-09-28T00:43:21.855Z,1.00
2022-09-28T00:44:26.089Z,0.90
2022-09-28T00:45:27.499Z,1.20
2022-09-28T00:46:32.096Z,1.10
2022-09-28T00:47:41.684Z,1.10
2022-09-28T00:48:47.143Z,1.00
2022-09-28T00:49:52.549Z,1.20
2022-09-28T00:50:53.893Z,1.10
2022-09-28T00:51:55.503Z,1.17
2022-09-28T00:53:00.273Z,1.40
2022-09-28T00:54:02.720Z,1.37
2022-09-28T00:55:05.837Z,1.00
2022-09-28T00:56:09.381Z,1.13
2022-09-28T00:57:10.936Z,1.10
2022-09-28T00:58:14.943Z,1.10
2022-09-28T00:59:16.528Z,1.13
2022-09-28T01:00:18.228Z,1.20
2022-09-28T01:01:19.584Z,1.10
2022-09-28T01:02:21.030Z,1.40
2022-09-28T01:03:22.487Z,1.33
2022-09-28T01:04:26.948Z,1.20
2022-09-28T01:05:31.592Z,1.20
2022-09-28T01:06:34.301Z,1.30
2022-09-28T01:07:35.957Z,1.40
2022-09-28T01:08:38.651Z,1.10
2022-09-28T01:09:40.635Z,1.23
2022-09-28T01:10:43.704Z,1.30
2022-09-28T01:11:45.010Z,1.10
2022-09-28T01:12:46.326Z,1.10
2022-09-28T01:13:49.074Z,1.33
2022-09-28T01:14:50.861Z,1.30
2022-09-28T01:16:08.189Z,1.53
2022-09-28T01:17:15.398Z,1.17
2022-09-28T01:18:39.073Z,1.10
2022-09-28T01:19:59.272Z,1.43
2022-09-28T01:21:14.541Z,0.93
2022-09-28T01:22:24.818Z,1.30
2022-09-28T01:23:32.394Z,1.53
2022-09-28T01:24:45.918Z,1.40
2022-09-28T01:26:05.992Z,1.20
2022-09-28T01:27:12.488Z,1.27
2022-09-28T01:28:20.831Z,1.40
2022-09-28T01:29:29.457Z,1.30
2022-09-28T01:30:32.564Z,1.37
2022-09-28T01:31:36.222Z,1.13
2022-09-28T01:32:37.640Z,1.27
2022-09-28T01:33:39.064Z,1.27
2022-09-28T01:35:06.800Z,1.27
2022-09-28T01:36:13.796Z,0.90
2022-09-28T01:37:16.442Z,1.43
2022-09-28T01:38:26.700Z,1.33
2022-09-28T01:39:32.964Z,1.30
2022-09-28T01:40:36.297Z,1.30
2022-09-28T01:41:40.274Z,1.30
2022-09-28T01:42:44.117Z,1.40
2022-09-28T01:43:48.180Z,1.10
2022-09-28T01:44:51.246Z,1.10
2022-09-28T01:45:58.775Z,1.17
2022-09-28T01:47:04.214Z,1.13
2022-09-28T01:48:07.685Z,1.37
2022-09-28T01:49:11.467Z,1.20
2022-09-28T01:50:14.751Z,1.20
2022-09-28T01:51:19.853Z,1.80
2022-09-28T01:52:27.799Z,1.10
2022-09-28T01:53:33.358Z,0.90
2022-09-28T01:54:57.227Z,0.87
2022-09-28T01:56:00.094Z,1.37
2022-09-28T01:57:10.315Z,1.00
2022-09-28T01:58:14.178Z,1.10
2022-09-28T01:59:17.314Z,1.20
2022-09-28T02:00:19.667Z,1.00
2022-09-28T02:01:28.225Z,1.17
2022-09-28T02:02:35.389Z,1.17
2022-09-28T02:03:43.686Z,1.17
2022-09-28T02:04:47.538Z,1.30
2022-09-28T02:05:50.864Z,1.10
2022-09-28T02:07:07.414Z,1.30
2022-09-28T02:08:10.897Z,1.20
2022-09-28T02:09:15.671Z,1.10
2022-09-28T02:10:22.393Z,1.30
2022-09-28T02:11:23.819Z,1.00
2022-09-28T02:12:34.925Z,1.03
2022-09-28T02:13:39.040Z,1.23
2022-09-28T02:14:41.270Z,1.10
2022-09-28T02:15:48.325Z,1.20
2022-09-28T02:16:51.816Z,1.20
2022-09-28T02:17:59.385Z,1.30
2022-09-28T02:19:01.216Z,1.10
2022-09-28T02:20:02.646Z,1.20
2022-09-28T02:21:10.812Z,1.07
2022-09-28T02:22:12.080Z,1.00
2022-09-28T02:23:13.471Z,1.20
2022-09-28T02:24:21.510Z,1.10
2022-09-28T02:25:30.043Z,1.10
2022-09-28T02:26:34.957Z,0.90
2022-09-28T02:27:40.968Z,1.00
2022-09-28T02:28:42.769Z,0.90
2022-09-28T02:29:44.101Z,1.03
2022-09-28T02:30:45.976Z,1.20
2022-09-28T02:31:48.946Z,1.10
2022-09-28T02:32:53.490Z,1.00
2022-09-28T02:33:56.773Z,0.80
2022-09-28T02:34:58.116Z,1.23
2022-09-28T02:36:00.596Z,1.17
2022-09-28T02:37:03.395Z,0.80
2022-09-28T02:38:04.756Z,1.10
2022-09-28T02:39:12.601Z,0.80
2022-09-28T02:40:15.314Z,0.87
2022-09-28T02:41:32.965Z,1.00
2022-09-28T02:42:44.581Z,0.83
2022-09-28T02:43:51.749Z,1.00
2022-09-28T02:45:02.726Z,0.77
2022-09-28T02:46:13.449Z,1.20
2022-09-28T02:47:20.202Z,0.63
2022-09-28T02:48:45.674Z,0.80
2022-09-28T02:50:07.476Z,0.83
2022-09-28T02:51:16.531Z,0.60
2022-09-28T02:52:29.976Z,0.70
2022-09-28T02:53:31.223Z,0.60
2022-09-28T02:54:43.788Z,0.80
2022-09-28T02:56:01.061Z,0.60
2022-09-28T02:57:25.480Z,0.70
2022-09-28T02:58:26.744Z,0.70
2022-09-28T02:59:28.127Z,0.80
2022-09-28T03:00:30.876Z,0.47
2022-09-28T03:01:44.049Z,0.70
2022-09-28T03:03:03.665Z,1.37
2022-09-28T03:04:13.197Z,1.00
2022-09-28T03:05:29.996Z,0.80
2022-09-28T03:06:41.104Z,0.60
2022-09-28T03:07:47.795Z,0.60
2022-09-28T03:08:53.987Z,0.73
2022-09-28T03:10:30.395Z,0.77
2022-09-28T03:11:43.294Z,0.70
2022-09-28T03:12:46.149Z,1.03
2022-09-28T03:13:49.790Z,0.70
2022-09-28T03:15:05.609Z,0.60
2022-09-28T03:16:14.605Z,0.70
2022-09-28T03:17:20.191Z,0.60
2022-09-28T03:18:21.841Z,0.70
2022-09-28T03:19:26.335Z,0.40
2022-09-28T03:20:28.691Z,0.60
2022-09-28T03:21:29.977Z,0.80
2022-09-28T03:22:31.486Z,0.60
2022-09-28T03:23:32.811Z,0.70
2022-09-28T03:24:36.166Z,0.60
2022-09-28T03:25:37.500Z,0.80
2022-09-28T03:26:39.006Z,0.63
2022-09-28T03:27:40.673Z,0.70
2022-09-28T03:28:42.536Z,0.70
2022-09-28T03:29:48.756Z,0.70
2022-09-28T03:30:50.388Z,0.80
2022-09-28T03:31:52.132Z,0.60
2022-09-28T03:33:00.278Z,0.77
2022-09-28T03:34:04.032Z,0.80
2022-09-28T03:35:06.654Z,0.80
2022-09-28T03:36:09.472Z,0.60
2022-09-28T03:37:11.323Z,0.70
2022-09-28T03:38:12.694Z,0.50
2022-09-28T03:39:14.019Z,0.60
2022-09-28T03:40:15.390Z,0.60
2022-09-28T03:41:16.747Z,0.63
2022-09-28T03:42:18.345Z,0.60
2022-09-28T03:43:23.810Z,0.50
2022-09-28T03:44:26.686Z,0.60
2022-09-28T03:45:28.059Z,0.67
2022-09-28T03:46:29.700Z,0.90
2022-09-28T03:47:35.866Z,0.60
2022-09-28T03:48:37.204Z,0.60
2022-09-28T03:49:38.566Z,0.90
2022-09-28T03:50:39.979Z,0.67
2022-09-28T03:51:44.034Z,0.70
2022-09-28T03:52:45.386Z,0.60
2022-09-28T03:53:46.708Z,0.60
2022-09-28T03:54:49.346Z,0.70
2022-09-28T03:55:53.131Z,0.60
2022-09-28T03:56:54.767Z,0.40
2022-09-28T03:57:56.080Z,0.50
2022-09-28T03:58:57.387Z,0.60
2022-09-28T04:00:00.118Z,0.50
2022-09-28T04:01:04.017Z,0.60
2022-09-28T04:02:05.503Z,0.50
2022-09-28T04:03:06.926Z,0.60
2022-09-28T04:04:10.797Z,0.50
2022-09-28T04:05:12.114Z,0.60
2022-09-28T04:06:14.268Z,0.80
2022-09-28T04:07:15.560Z,0.80
2022-09-28T04:08:18.685Z,1.00
2022-09-28T04:09:20.454Z,0.60
2022-09-28T04:10:21.988Z,0.60
2022-09-28T04:11:24.141Z,0.60
2022-09-28T04:12:25.427Z,0.90
2022-09-28T04:13:27.739Z,0.60
2022-09-28T04:14:29.067Z,0.70
2022-09-28T04:15:30.339Z,0.80
2022-09-28T04:16:31.729Z,0.80
2022-09-28T04:17:40.888Z,0.60
2022-09-28T04:18:50.116Z,0.63
2022-09-28T04:20:10.157Z,0.80
2022-09-28T04:21:16.181Z,0.60
2022-09-28T04:22:24.720Z,0.70
2022-09-28T04:23:27.303Z,0.77
2022-09-28T04:24:28.934Z,0.80
2022-09-28T04:25:31.113Z,0.80
2022-09-28T04:26:32.544Z,0.70
2022-09-28T04:27:52.404Z,0.80
2022-09-28T04:29:12.431Z,0.80
2022-09-28T04:30:13.973Z,0.90
2022-09-28T04:31:20.448Z,0.70
2022-09-28T04:32:22.013Z,0.70
2022-09-28T04:33:23.405Z,0.57
2022-09-28T04:34:24.717Z,0.80
2022-09-28T04:35:26.061Z,0.80
2022-09-28T04:36:27.389Z,0.80
2022-09-28T04:37:31.106Z,0.70
2022-09-28T04:38:51.767Z,0.70
2022-09-28T04:39:54.280Z,0.83
2022-09-28T04:40:55.620Z,0.80
2022-09-28T04:41:57.115Z,0.90
2022-09-28T04:42:58.401Z,0.90
2022-09-28T04:44:00.043Z,0.90
2022-09-28T04:45:02.153Z,0.80
2022-09-28T04:46:05.560Z,0.80
2022-09-28T04:47:13.582Z,0.80
2022-09-28T04:48:23.977Z,0.90
2022-09-28T04:50:03.786Z,0.90
2022-09-28T04:51:08.455Z,0.90
2022-09-28T04:52:11.674Z,0.93
2022-09-28T04:53:14.968Z,0.83
2022-09-28T04:54:16.351Z,1.10
2022-09-28T04:55:17.718Z,0.87
2022-09-28T04:56:19.206Z,0.80
2022-09-28T04:57:20.498Z,0.90
2022-09-28T04:58:21.782Z,1.00
2022-09-28T04:59:23.293Z,1.00
2022-09-28T05:00:24.677Z,1.00
2022-09-28T05:01:40.156Z,0.80
2022-09-28T05:02:59.975Z,1.10
2022-09-28T05:04:25.628Z,0.90
2022-09-28T05:05:46.121Z,1.10
2022-09-28T05:07:03.584Z,1.40
2022-09-28T05:08:05.090Z,1.20
2022-09-28T05:09:06.922Z,1.00
2022-09-28T05:10:08.346Z,1.27
2022-09-28T05:11:11.970Z,1.27
2022-09-28T05:12:13.248Z,1.50
2022-09-28T05:13:14.780Z,1.40
2022-09-28T05:14:16.704Z,1.87
2022-09-28T05:15:18.175Z,1.20
2022-09-28T05:16:20.432Z,1.30
2022-09-28T05:17:40.721Z,1.63
2022-09-28T05:18:55.794Z,1.20
2022-09-28T05:19:57.134Z,1.30
2022-09-28T05:20:58.499Z,1.57
2022-09-28T05:22:04.362Z,1.50
2022-09-28T05:23:12.061Z,1.43
2022-09-28T05:24:14.261Z,1.77
2022-09-28T05:25:19.219Z,1.43
2022-09-28T05:26:29.692Z,1.70
2022-09-28T05:27:31.046Z,1.60
2022-09-28T05:28:39.744Z,1.50
2022-09-28T05:30:07.416Z,1.80
2022-09-28T05:31:27.679Z,1.37
2022-09-28T05:32:41.707Z,1.70
2022-09-28T05:33:53.871Z,1.63
2022-09-28T05:34:55.825Z,1.70
2022-09-28T05:36:01.997Z,1.47
2022-09-28T05:37:04.341Z,1.57
2022-09-28T05:38:05.706Z,1.40
2022-09-28T05:39:07.897Z,1.57
2022-09-28T05:40:09.523Z,1.60
2022-09-28T05:41:12.540Z,1.43
2022-09-28T05:42:13.887Z,1.53
2022-09-28T05:43:17.020Z,1.80
2022-09-28T05:44:18.489Z,1.50
2022-09-28T05:45:19.970Z,1.73
2022-09-28T05:46:22.455Z,1.90
2022-09-28T05:47:24.588Z,1.90
2022-09-28T05:48:26.087Z,1.80
2022-09-28T05:49:29.161Z,1.80
2022-09-28T05:50:30.768Z,2.40
2022-09-28T05:51:32.101Z,2.20
2022-09-28T05:52:33.434Z,1.73
2022-09-28T05:53:35.243Z,1.80
2022-09-28T05:54:36.620Z,1.90
2022-09-28T05:55:39.753Z,1.87
2022-09-28T05:56:41.286Z,2.10
2022-09-28T05:57:42.993Z,2.00
2022-09-28T05:58:44.351Z,1.87
2022-09-28T05:59:46.285Z,2.00
2022-09-28T06:00:53.482Z,2.10
2022-09-28T06:01:54.819Z,2.00
2022-09-28T06:03:00.028Z,1.50
2022-09-28T06:04:02.073Z,1.90
2022-09-28T06:05:03.497Z,1.90
2022-09-28T06:06:04.872Z,1.93
2022-09-28T06:07:06.436Z,2.20
2022-09-28T06:08:10.484Z,2.03
2022-09-28T06:09:13.223Z,1.90
2022-09-28T06:10:32.617Z,1.90
2022-09-28T06:11:35.455Z,2.27
2022-09-28T06:12:43.363Z,2.07
2022-09-28T06:13:53.050Z,2.90
2022-09-28T06:14:55.092Z,2.87
2022-09-28T06:15:57.323Z,1.77
2022-09-28T06:17:00.802Z,2.20
2022-09-28T06:18:06.806Z,2.70
2022-09-28T06:19:15.166Z,2.47
2022-09-28T06:20:38.226Z,2.50
2022-09-28T06:22:02.707Z,2.80
2022-09-28T06:23:06.321Z,2.47
2022-09-28T06:24:07.699Z,2.60
2022-09-28T06:25:10.542Z,2.50
2022-09-28T06:26:13.691Z,2.33
2022-09-28T06:27:15.053Z,2.80
2022-09-28T06:28:16.876Z,2.80
2022-09-28T06:29:19.812Z,2.77
2022-09-28T06:30:21.671Z,3.00
2022-09-28T06:31:25.975Z,2.47
2022-09-28T06:32:29.681Z,2.80
2022-09-28T06:33:31.223Z,2.20
2022-09-28T06:34:32.559Z,2.50
2022-09-28T06:35:34.882Z,2.17
2022-09-28T06:36:36.318Z,2.13
2022-09-28T06:37:37.632Z,1.97
2022-09-28T06:38:39.568Z,2.20
2022-09-28T06:39:41.128Z,2.40
2022-09-28T06:40:43.262Z,2.30
2022-09-28T06:41:45.471Z,2.40
2022-09-28T06:43:03.077Z,2.17
2022-09-28T06:44:25.201Z,2.20
2022-09-28T06:45:53.114Z,2.10
2022-09-28T06:47:20.617Z,2.43
2022-09-28T06:48:44.156Z,2.07
2022-09-28T06:49:51.249Z,2.00
2022-09-28T06:50:55.464Z,2.33
2022-09-28T06:52:10.622Z,2.40
2022-09-28T06:53:31.308Z,2.20
2022-09-28T06:54:52.855Z,2.17
2022-09-28T06:56:17.978Z,2.40
2022-09-28T06:57:19.413Z,2.20
2022-09-28T06:58:22.565Z,2.40
2022-09-28T06:59:24.404Z,2.07
2022-09-28T07:00:27.313Z,2.40
2022-09-28T07:01:29.317Z,2.70
2022-09-28T07:02:38.893Z,2.30
2022-09-28T07:04:03.870Z,2.20
2022-09-28T07:05:27.300Z,2.30
2022-09-28T07:06:34.283Z,2.53
2022-09-28T07:07:55.256Z,2.30
2022-09-28T07:09:31.227Z,2.37
2022-09-28T07:11:06.713Z,2.40
2022-09-28T07:12:34.884Z,2.60
2022-09-28T07:13:53.449Z,2.57
2022-09-28T07:14:57.606Z,2.30
2022-09-28T07:16:01.841Z,2.00
2022-09-28T07:17:13.307Z,2.50
2022-09-28T07:18:18.660Z,2.10
2022-09-28T07:19:20.048Z,2.07
2022-09-28T07:20:21.357Z,2.10
2022-09-28T07:21:29.853Z,1.97
2022-09-28T07:22:43.052Z,1.80
2022-09-28T07:23:53.807Z,2.07
2022-09-28T07:24:58.582Z,1.50
2022-09-28T07:26:23.077Z,1.70
2022-09-28T07:27:48.703Z,2.20
2022-09-28T07:29:10.912Z,1.50
2022-09-28T07:30:18.240Z,1.90
2022-09-28T07:31:38.404Z,1.83
2022-09-28T07:32:58.571Z,1.80
2022-09-28T07:34:11.764Z,1.60
2022-09-28T07:35:34.261Z,1.30
2022-09-28T07:36:35.682Z,1.67
2022-09-28T07:37:38.041Z,1.43
2022-09-28T07:38:39.872Z,1.40
2022-09-28T07:39:59.969Z,1.23
2022-09-28T07:41:11.742Z,1.13
2022-09-28T07:42:18.218Z,1.30
2022-09-28T07:43:22.644Z,1.10
2022-09-28T07:44:26.235Z,1.63
2022-09-28T07:45:34.095Z,1.40
2022-09-28T07:46:36.818Z,1.60
2022-09-28T07:47:46.974Z,1.23
2022-09-28T07:49:12.672Z,1.30
2022-09-28T07:50:29.430Z,1.70
2022-09-28T07:51:56.345Z,1.10
2022-09-28T07:53:11.306Z,1.57
2022-09-28T07:54:25.553Z,1.10
2022-09-28T07:55:50.711Z,1.17
2022-09-28T07:57:12.281Z,1.20
2022-09-28T07:58:37.315Z,1.17
2022-09-28T08:00:04.116Z,1.10
2022-09-28T08:01:20.470Z,1.13
2022-09-28T08:02:22.385Z,1.37
2022-09-28T08:03:24.108Z,1.50
2022-09-28T08:04:28.996Z,1.10
2022-09-28T08:05:31.196Z,1.17
2022-09-28T08:06:32.947Z,1.53
2022-09-28T08:07:34.727Z,1.17
2022-09-28T08:08:44.535Z,1.33
2022-09-28T08:09:47.734Z,1.33
2022-09-28T08:11:01.129Z,1.33
2022-09-28T08:12:19.667Z,1.40
2022-09-28T08:13:58.052Z,1.30
2022-09-28T08:15:21.335Z,1.20
2022-09-28T08:16:30.109Z,1.30
2022-09-28T08:17:46.645Z,1.30
2022-09-28T08:18:50.917Z,1.40
2022-09-28T08:20:10.736Z,1.10
2022-09-28T08:21:31.257Z,1.23
2022-09-28T08:22:32.954Z,1.20
2022-09-28T08:23:35.280Z,1.73
2022-09-28T08:24:36.704Z,1.33
2022-09-28T08:25:38.187Z,1.33
2022-09-28T08:26:40.318Z,1.10
2022-09-28T08:27:42.256Z,1.20
2022-09-28T08:28:44.959Z,1.40
2022-09-28T08:30:06.588Z,1.17
2022-09-28T08:31:26.302Z,1.47
2022-09-28T08:32:47.421Z,1.40
2022-09-28T08:34:07.473Z,1.40
2022-09-28T08:35:27.220Z,1.40
2022-09-28T08:36:48.273Z,1.20
2022-09-28T08:38:10.053Z,1.00
2022-09-28T08:39:30.100Z,1.03
2022-09-28T08:40:48.862Z,1.20
2022-09-28T08:42:23.187Z,1.23
2022-09-28T08:43:56.631Z,1.20
2022-09-28T08:45:11.705Z,1.07
2022-09-28T08:46:37.344Z,1.40
2022-09-28T08:48:37.894Z,1.20
2022-09-28T08:49:59.093Z,1.13
2022-09-28T08:51:21.131Z,1.40
2022-09-28T08:52:37.780Z,1.40
2022-09-28T08:53:48.166Z,1.50
2022-09-28T08:55:12.961Z,1.27
2022-09-28T08:56:35.615Z,1.10
2022-09-28T08:57:55.307Z,0.97
2022-09-28T08:59:02.071Z,1.00
2022-09-28T09:00:09.589Z,1.53
2022-09-28T09:01:16.347Z,1.20
2022-09-28T09:02:36.107Z,1.03
2022-09-28T09:03:52.327Z,1.20
2022-09-28T09:05:19.860Z,1.40
2022-09-28T09:06:54.163Z,1.20
2022-09-28T09:08:07.209Z,1.20
2022-09-28T09:09:11.164Z,1.20
2022-09-28T09:10:33.850Z,1.30
2022-09-28T09:11:44.352Z,1.10
2022-09-28T09:13:17.450Z,1.20
2022-09-28T09:14:27.289Z,1.30
2022-09-28T09:15:38.859Z,1.03
2022-09-28T09:16:59.979Z,0.90
2022-09-28T09:18:22.869Z,1.20
2022-09-28T09:19:54.802Z,1.10
2022-09-28T09:21:37.265Z,1.13
2022-09-28T09:22:40.689Z,1.00
2022-09-28T09:23:52.615Z,1.10
2022-09-28T09:25:02.584Z,1.20
2022-09-28T09:26:17.766Z,1.20
2022-09-28T09:27:39.026Z,1.40
2022-09-28T09:28:43.677Z,1.30
2022-09-28T09:29:54.634Z,1.30
2022-09-28T09:31:20.731Z,1.00
2022-09-28T09:32:42.752Z,1.00
2022-09-28T09:33:53.466Z,1.07
2022-09-28T09:35:13.487Z,1.10
2022-09-28T09:36:42.623Z,0.80
2022-09-28T09:38:13.438Z,0.70
2022-09-28T09:39:51.210Z,1.00
2022-09-28T09:41:23.219Z,1.13
2022-09-28T09:43:02.124Z,1.10
2022-09-28T09:44:32.532Z,0.80
2022-09-28T09:45:57.004Z,1.00
2022-09-28T09:47:31.197Z,1.00
2022-09-28T09:48:54.927Z,1.07
2022-09-28T09:50:09.132Z,1.20
2022-09-28T09:51:17.806Z,1.10
2022-09-28T09:52:25.089Z,0.90
2022-09-28T09:53:38.339Z,1.20
2022-09-28T09:54:46.260Z,0.90
2022-09-28T09:56:03.893Z,0.90
2022-09-28T09:57:17.421Z,1.00
2022-09-28T09:58:48.653Z,1.10
2022-09-28T09:59:55.840Z,1.00
2022-09-28T10:01:06.553Z,1.07
2022-09-28T10:02:39.179Z,0.93
2022-09-28T10:03:58.823Z,1.00
2022-09-28T10:05:04.707Z,1.00
2022-09-28T10:06:16.079Z,0.87
2022-09-28T10:07:23.282Z,1.10
2022-09-28T10:08:25.549Z,1.00
2022-09-28T10:09:30.336Z,1.03
2022-09-28T10:10:49.495Z,1.03
2022-09-28T10:11:53.911Z,1.20
2022-09-28T10:12:55.848Z,2.50
2022-09-28T10:13:57.765Z,5.07
2022-09-28T10:15:27.096Z,3.97
2022-09-28T10:16:56.601Z,2.80
2022-09-28T10:18:18.972Z,6.07
2022-09-28T10:19:56.848Z,8.27
2022-09-28T10:21:24.375Z,7.60
2022-09-28T10:22:40.651Z,4.17
2022-09-28T10:23:50.161Z,1.97
2022-09-28T10:24:54.801Z,19.97
2022-09-28T10:26:25.602Z,13.43
2022-09-28T10:27:29.427Z,3.70
2022-09-28T10:28:42.904Z,1.40
2022-09-28T10:29:55.192Z,1.13
2022-09-28T10:30:56.625Z,4.10
2022-09-28T10:31:58.125Z,4.90
2022-09-28T10:33:02.970Z,2.23
2022-09-28T10:34:10.619Z,1.30
2022-09-28T10:35:14.743Z,1.60
2022-09-28T10:36:16.900Z,1.27
2022-09-28T10:37:18.852Z,1.40
2022-09-28T10:38:47.421Z,1.27
2022-09-28T10:39:59.410Z,0.80
2022-09-28T10:41:11.557Z,1.00
2022-09-28T10:42:25.513Z,0.80
2022-09-28T10:43:28.721Z,1.00
2022-09-28T10:44:34.781Z,0.80
2022-09-28T10:45:45.462Z,0.90
2022-09-28T10:46:55.222Z,1.20
2022-09-28T10:47:58.251Z,0.60
2022-09-28T10:49:02.741Z,0.90
2022-09-28T10:50:14.160Z,1.00
2022-09-28T10:51:16.008Z,0.87
2022-09-28T10:52:30.145Z,1.20
2022-09-28T10:53:31.663Z,1.43
2022-09-28T10:54:53.515Z,1.40
2022-09-28T10:56:01.334Z,1.10
2022-09-28T10:57:02.840Z,0.90
2022-09-28T10:58:28.088Z,0.73
2022-09-28T10:59:29.374Z,1.00
2022-09-28T11:00:47.485Z,0.97
2022-09-28T11:01:57.747Z,0.90
2022-09-28T11:03:00.106Z,0.80
2022-09-28T11:04:02.757Z,0.90
2022-09-28T11:05:06.488Z,1.10
2022-09-28T11:06:22.849Z,1.10
2022-09-28T11:07:28.546Z,0.90
2022-09-28T11:08:36.168Z,1.10
2022-09-28T11:09:42.316Z,1.20
2022-09-28T11:10:44.920Z,1.30
2022-09-28T11:11:48.683Z,1.10
2022-09-28T11:12:50.587Z,1.20
2022-09-28T11:14:00.285Z,1.10
2022-09-28T11:15:06.951Z,1.03
2022-09-28T11:16:08.495Z,1.20
2022-09-28T11:17:17.133Z,1.43
2022-09-28T11:18:19.987Z,1.20
2022-09-28T11:19:21.257Z,1.53
2022-09-28T11:20:28.222Z,1.40
2022-09-28T11:21:41.500Z,1.37
2022-09-28T11:22:44.681Z,1.47
2022-09-28T11:24:02.067Z,1.20
2022-09-28T11:25:16.057Z,0.90
2022-09-28T11:26:18.825Z,1.13
2022-09-28T11:27:22.508Z,1.00
2022-09-28T11:28:26.709Z,0.90
2022-09-28T11:29:35.561Z,1.00
2022-09-28T11:31:09.631Z,1.13
2022-09-28T11:32:26.289Z,0.90
2022-09-28T11:33:50.297Z,1.17
2022-09-28T11:35:16.569Z,0.90
2022-09-28T11:36:30.652Z,1.37
2022-09-28T11:37:37.924Z,1.20
2022-09-28T11:38:57.554Z,0.87
2022-09-28T11:40:40.862Z,1.10
2022-09-28T11:42:01.175Z,0.90
2022-09-28T11:44:21.249Z,1.00
2022-09-28T11:45:39.313Z,1.30
2022-09-28T11:46:59.438Z,1.80
2022-09-28T11:48:05.823Z,1.10
2022-09-28T11:49:26.578Z,1.00
2022-09-28T11:50:39.821Z,1.43
2022-09-28T11:51:43.296Z,0.80
2022-09-28T11:52:50.494Z,1.00
2022-09-28T11:53:54.085Z,1.03
2022-09-28T11:54:58.415Z,0.70
2022-09-28T11:56:08.573Z,0.90
2022-09-28T11:57:16.695Z,0.90
2022-09-28T11:58:24.076Z,0.97
2022-09-28T11:59:31.938Z,1.10
2022-09-28T12:00:38.142Z,1.00
2022-09-28T12:01:49.163Z,1.57
2022-09-28T12:03:21.274Z,1.20
2022-09-28T12:04:28.839Z,0.87
2022-09-28T12:05:41.909Z,1.03
2022-09-28T12:07:09.393Z,0.80
2022-09-28T12:08:17.992Z,0.90
2022-09-28T12:10:09.953Z,0.67
2022-09-28T12:11:21.986Z,0.70
2022-09-28T12:12:50.162Z,0.87
2022-09-28T12:13:53.852Z,0.60
2022-09-28T12:15:38.192Z,0.70
2022-09-28T12:17:07.989Z,1.20
2022-09-28T12:18:28.393Z,0.40
2022-09-28T12:19:33.248Z,0.53
2022-09-28T12:20:38.316Z,0.80
2022-09-28T12:21:48.190Z,1.00
2022-09-28T12:22:55.557Z,1.10
2022-09-28T12:24:00.589Z,0.70
2022-09-28T12:25:02.970Z,0.80
2022-09-28T12:26:25.517Z,0.60
2022-09-28T12:27:26.792Z,0.60
2022-09-28T12:28:46.986Z,0.60
2022-09-28T12:29:53.490Z,0.70
2022-09-28T12:30:55.719Z,0.73
2022-09-28T12:32:04.298Z,0.70
2022-09-28T12:33:05.795Z,0.63
2022-09-28T12:34:09.421Z,0.73
2022-09-28T12:35:12.454Z,0.80
2022-09-28T12:36:16.834Z,1.20
2022-09-28T12:37:30.329Z,1.37
2022-09-28T12:39:14.799Z,1.37
2022-09-28T12:40:15.416Z,1.33
2022-09-28T12:41:16.801Z,1.20
2022-09-28T12:42:31.987Z,0.90
2022-09-28T12:43:43.075Z,0.60
2022-09-28T12:44:50.241Z,0.67
2022-09-28T12:46:12.689Z,1.30
2022-09-28T12:47:21.014Z,3.87
2022-09-28T12:48:27.984Z,3.40
2022-09-28T12:51:09.127Z,3.90
2022-09-28T12:52:28.897Z,2.80
2022-09-28T12:53:42.339Z,1.50
2022-09-28T12:54:53.787Z,1.17
2022-09-28T12:55:56.255Z,1.20
2022-09-28T12:57:00.178Z,1.10
2022-09-28T12:58:16.951Z,0.77
2022-09-28T12:59:18.692Z,0.70
2022-09-28T13:00:22.799Z,1.10
2022-09-28T13:01:24.101Z,0.93
2022-09-28T13:02:25.514Z,1.47
2022-09-28T13:03:47.986Z,1.80
2022-09-28T13:05:08.064Z,1.10
2022-09-28T13:06:21.968Z,1.00
2022-09-28T13:07:32.197Z,0.80
2022-09-28T13:08:55.233Z,0.40
2022-09-28T13:10:18.563Z,0.57
2022-09-28T13:11:31.762Z,0.67
2022-09-28T13:12:45.250Z,0.70
2022-09-28T13:13:49.614Z,0.50
2022-09-28T13:15:00.281Z,0.83
2022-09-28T13:16:07.608Z,1.00
2022-09-28T13:17:27.939Z,0.77
2022-09-28T13:18:42.131Z,0.73
2022-09-28T13:19:46.235Z,0.70
2022-09-28T13:21:04.355Z,0.80
2022-09-28T13:22:21.476Z,1.00
2022-09-28T13:23:22.828Z,0.60
2022-09-28T13:24:32.845Z,0.60
2022-09-28T13:25:36.304Z,0.73
2022-09-28T13:26:40.170Z,0.70
2022-09-28T13:27:46.096Z,0.43
2022-09-28T13:28:47.792Z,0.90
2022-09-28T13:29:50.268Z,0.60
2022-09-28T13:30:52.321Z,0.60
2022-09-28T13:31:54.807Z,0.70
2022-09-28T13:32:57.620Z,0.70
2022-09-28T13:34:03.254Z,0.60
2022-09-28T13:35:05.552Z,0.80
2022-09-28T13:36:25.867Z,0.77
2022-09-28T13:37:28.056Z,1.00
2022-09-28T13:38:30.527Z,0.60
2022-09-28T13:39:37.447Z,0.70
2022-09-28T13:40:57.359Z,0.70
2022-09-28T13:42:00.048Z,0.80
2022-09-28T13:43:17.493Z,0.83
2022-09-28T13:44:43.811Z,0.70
2022-09-28T13:45:52.716Z,0.70
2022-09-28T13:46:59.981Z,0.60
2022-09-28T13:48:05.184Z,0.73
2022-09-28T13:49:09.344Z,1.30
2022-09-28T13:50:13.650Z,1.93
2022-09-28T13:51:14.931Z,0.90
2022-09-28T13:52:32.331Z,0.57
2022-09-28T13:53:36.489Z,0.70
2022-09-28T13:54:50.291Z,0.70
2022-09-28T13:55:52.291Z,0.60
2022-09-28T13:57:01.864Z,0.70
2022-09-28T13:58:13.427Z,1.03
2022-09-28T13:59:27.667Z,0.87
2022-09-28T14:00:36.998Z,0.70
2022-09-28T14:01:44.774Z,0.77
2022-09-28T14:03:04.117Z,0.90
2022-09-28T14:04:11.688Z,0.60
2022-09-28T14:05:34.237Z,0.70
2022-09-28T14:06:35.843Z,0.77
2022-09-28T14:07:37.110Z,1.03
2022-09-28T14:08:39.866Z,0.70
2022-09-28T14:09:48.143Z,1.10
2022-09-28T14:10:56.251Z,0.70
2022-09-28T14:11:59.064Z,0.80
2022-09-28T14:13:01.532Z,0.93
2022-09-28T14:14:07.805Z,0.93
2022-09-28T14:15:29.523Z,0.90
2022-09-28T14:16:31.867Z,1.17
2022-09-28T14:17:45.482Z,0.90
2022-09-28T14:19:03.623Z,1.10
2022-09-28T14:20:15.413Z,1.60
2022-09-28T14:21:37.026Z,1.20
2022-09-28T14:22:54.567Z,1.37
2022-09-28T14:24:19.137Z,1.20
2022-09-28T14:25:20.432Z,0.90
2022-09-28T14:26:41.912Z,0.77
2022-09-28T14:28:01.818Z,0.97
2022-09-28T14:29:24.773Z,1.00
2022-09-28T14:30:27.497Z,0.70
2022-09-28T14:31:29.365Z,0.80
2022-09-28T14:32:36.914Z,0.90
2022-09-28T14:33:39.442Z,0.83
2022-09-28T14:34:42.434Z,0.90
2022-09-28T14:35:46.550Z,0.90
2022-09-28T14:37:07.500Z,1.00
2022-09-28T14:38:33.415Z,0.90
2022-09-28T14:39:55.269Z,0.80
2022-09-28T14:41:11.097Z,0.70
2022-09-28T14:42:15.602Z,0.80
2022-09-28T14:43:24.229Z,0.77
2022-09-28T14:44:25.587Z,0.83
2022-09-28T14:45:34.708Z,0.60
2022-09-28T14:46:46.018Z,0.70
2022-09-28T14:48:05.937Z,0.80
2022-09-28T14:49:19.744Z,0.80
2022-09-28T14:50:28.264Z,0.90
2022-09-28T14:51:34.924Z,1.30
2022-09-28T14:52:40.377Z,1.10
2022-09-28T14:53:41.912Z,1.30
2022-09-28T14:54:52.078Z,1.10
2022-09-28T14:55:58.279Z,1.73
2022-09-28T14:57:11.721Z,1.00
2022-09-28T14:58:17.205Z,0.63
2022-09-28T14:59:22.760Z,1.10
2022-09-28T15:00:26.084Z,1.20
2022-09-28T15:01:27.647Z,1.23
2022-09-28T15:02:31.436Z,1.20
2022-09-28T15:03:37.093Z,1.17
2022-09-28T15:04:43.712Z,0.70
2022-09-28T15:05:47.128Z,0.77
2022-09-28T15:06:49.666Z,1.10
2022-09-28T15:07:52.217Z,1.00
2022-09-28T15:08:55.927Z,0.90
2022-09-28T15:09:57.854Z,0.73
2022-09-28T15:11:00.805Z,0.80
2022-09-28T15:12:09.745Z,0.77
2022-09-28T15:13:20.086Z,0.90
2022-09-28T15:14:21.491Z,0.80
2022-09-28T15:15:41.363Z,1.00
2022-09-28T15:16:42.788Z,1.10
2022-09-28T15:17:48.448Z,1.10
2022-09-28T15:18:59.029Z,1.40
2022-09-28T15:20:20.965Z,2.43
2022-09-28T15:21:23.398Z,2.60
2022-09-28T15:22:24.838Z,3.87
2022-09-28T15:23:27.909Z,12.50